Terminal Aerodrome Forecast
Issued by NWS

Home | Current Version | Previous Version | Text Only | Print | Product List | Glossary On
Versions: 1 2 3 4 5 6 7 8 9 10 11 12 13 14
000
FTUS43 KMPX 191100
TAFAXN
TAF
KAXN 191125Z 1912/2012 21010KT P6SM SCT200
     FM191900 27012KT P6SM SKC
     FM200000 32007KT P6SM SKC=

USA.gov is the U.S. government's official web portal to all federal, state and local government web resources and services.